createdAt,value
2018-10-01T00:00:24.877Z,21.50
2018-10-01T00:01:24.874Z,21.50
2018-10-01T00:02:24.866Z,21.10
2018-10-01T00:03:24.960Z,21.70
2018-10-01T00:04:24.851Z,20.80
2018-10-01T00:05:24.835Z,21.00
2018-10-01T00:06:24.811Z,20.50
2018-10-01T00:07:24.793Z,22.00
2018-10-01T00:08:24.787Z,21.90
2018-10-01T00:09:24.807Z,20.30
2018-10-01T00:10:24.762Z,21.10
2018-10-01T00:11:24.753Z,21.40
2018-10-01T00:12:24.739Z,20.60
2018-10-01T00:13:24.731Z,21.10
2018-10-01T00:14:24.752Z,20.60
2018-10-01T00:15:24.711Z,20.50
2018-10-01T00:16:24.694Z,20.80
2018-10-01T00:17:24.682Z,21.10
2018-10-01T00:18:24.680Z,21.00
2018-10-01T00:19:24.697Z,21.10
2018-10-01T00:20:24.649Z,20.50
2018-10-01T00:21:24.647Z,19.70
2018-10-01T00:22:24.626Z,19.90
2018-10-01T00:23:24.624Z,21.30
2018-10-01T00:24:24.610Z,20.10
2018-10-01T00:25:24.636Z,21.50
2018-10-01T00:26:24.583Z,21.20
2018-10-01T00:27:24.605Z,21.90
2018-10-01T00:28:24.558Z,20.50
2018-10-01T00:29:24.558Z,22.00
2018-10-01T00:30:24.568Z,21.10
2018-10-01T00:31:24.525Z,20.60
2018-10-01T00:32:24.517Z,21.60
2018-10-01T00:33:24.510Z,22.30
2018-10-01T00:34:24.491Z,22.40
2018-10-01T00:35:24.508Z,21.00
2018-10-01T00:36:24.478Z,21.80
2018-10-01T00:37:24.458Z,22.00
2018-10-01T00:38:24.497Z,21.30
2018-10-01T00:39:24.439Z,21.50
2018-10-01T00:40:24.459Z,22.40
2018-10-01T00:41:24.413Z,21.70
2018-10-01T00:42:24.419Z,21.30
2018-10-01T00:43:24.398Z,21.60
2018-10-01T00:44:24.393Z,20.40
2018-10-01T00:45:24.397Z,19.50
2018-10-01T00:46:24.357Z,20.00
2018-10-01T00:47:24.355Z,21.10
2018-10-01T00:48:24.340Z,20.90
2018-10-01T00:49:24.330Z,20.10
2018-10-01T00:50:24.362Z,19.70
2018-10-01T00:51:24.351Z,21.10
2018-10-01T00:52:24.296Z,22.00
2018-10-01T00:53:24.289Z,22.20
2018-10-01T00:54:24.264Z,22.60
2018-10-01T00:55:24.260Z,19.90
2018-10-01T00:56:24.267Z,21.20
2018-10-01T00:57:24.242Z,21.90
2018-10-01T00:58:24.224Z,19.40
2018-10-01T00:59:24.217Z,19.70
2018-10-01T01:00:24.205Z,20.30
2018-10-01T01:01:24.218Z,21.10
2018-10-01T01:02:24.184Z,20.20
2018-10-01T01:03:24.173Z,19.30
2018-10-01T01:04:24.200Z,20.50
2018-10-01T01:05:24.155Z,20.00
2018-10-01T01:06:24.139Z,20.90
2018-10-01T01:07:24.150Z,20.00
2018-10-01T01:08:24.120Z,20.40
2018-10-01T01:09:24.118Z,20.40
2018-10-01T01:10:24.097Z,20.10
2018-10-01T01:11:24.081Z,20.40
2018-10-01T01:12:24.083Z,19.70
2018-10-01T01:13:24.059Z,20.90
2018-10-01T01:14:24.038Z,21.80
2018-10-01T01:15:24.027Z,21.00
2018-10-01T01:16:24.028Z,22.00
2018-10-01T01:17:24.060Z,22.00
2018-10-01T01:18:23.993Z,21.70
2018-10-01T01:19:23.989Z,22.50
2018-10-01T01:20:23.971Z,21.70
2018-10-01T01:21:23.960Z,22.90
2018-10-01T01:22:23.971Z,22.80
2018-10-01T01:23:23.970Z,23.10
2018-10-01T01:24:23.952Z,22.40
2018-10-01T01:25:23.919Z,22.40
2018-10-01T01:26:23.912Z,22.00
2018-10-01T01:27:24.049Z,22.80
2018-10-01T01:28:23.887Z,22.20
2018-10-01T01:29:23.885Z,23.00
2018-10-01T01:30:23.860Z,23.60
2018-10-01T01:31:23.853Z,22.30
2018-10-01T01:32:23.874Z,23.10
2018-10-01T01:33:23.838Z,21.90
2018-10-01T01:34:23.817Z,22.90
2018-10-01T01:35:23.813Z,22.30
2018-10-01T01:36:23.804Z,23.30
2018-10-01T01:37:23.813Z,22.80
2018-10-01T01:38:23.790Z,22.70
2018-10-01T01:39:23.761Z,22.90
2018-10-01T01:40:23.747Z,22.60
2018-10-01T01:41:23.746Z,23.80
2018-10-01T01:42:23.765Z,23.30
2018-10-01T01:43:23.717Z,24.60
2018-10-01T01:44:23.725Z,23.90
2018-10-01T01:45:23.695Z,24.30
2018-10-01T01:46:23.681Z,25.00
2018-10-01T01:47:23.715Z,24.50
2018-10-01T01:48:23.660Z,25.50
2018-10-01T01:49:23.669Z,25.10
2018-10-01T01:50:23.725Z,26.40
2018-10-01T01:51:23.628Z,27.20
2018-10-01T01:52:23.647Z,27.30
2018-10-01T01:53:23.606Z,27.40
2018-10-01T01:54:23.598Z,26.50
2018-10-01T01:55:23.577Z,27.20
2018-10-01T01:56:23.585Z,28.40
2018-10-01T01:57:23.568Z,30.20
2018-10-01T01:58:23.576Z,31.20
2018-10-01T01:59:23.538Z,31.10
2018-10-01T02:00:23.525Z,32.00
2018-10-01T02:01:23.511Z,34.30
2018-10-01T02:02:23.502Z,33.20
2018-10-01T02:03:23.519Z,36.40
2018-10-01T02:04:23.479Z,35.80
2018-10-01T02:05:23.467Z,35.90
2018-10-01T02:06:23.461Z,36.30
2018-10-01T02:07:23.471Z,37.70
2018-10-01T02:08:23.460Z,37.10
2018-10-01T02:09:23.424Z,38.30
2018-10-01T02:10:23.413Z,38.30
2018-10-01T02:11:23.398Z,39.70
2018-10-01T02:12:23.390Z,39.20
2018-10-01T02:13:23.411Z,37.80
2018-10-01T02:14:23.365Z,39.00
2018-10-01T02:15:23.356Z,40.10
2018-10-01T02:16:23.345Z,41.00
2018-10-01T02:17:23.333Z,40.30
2018-10-01T02:18:23.354Z,39.40
2018-10-01T02:19:23.333Z,41.90
2018-10-01T02:20:23.297Z,42.90
2018-10-01T02:21:23.289Z,43.30
2018-10-01T02:22:23.275Z,41.70
2018-10-01T02:23:23.263Z,43.90
2018-10-01T02:24:23.274Z,41.20
2018-10-01T02:25:23.241Z,41.50
2018-10-01T02:26:23.226Z,40.80
2018-10-01T02:27:23.227Z,42.40
2018-10-01T02:28:23.205Z,41.90
2018-10-01T02:29:23.238Z,40.20
2018-10-01T02:30:23.196Z,42.90
2018-10-01T02:31:23.172Z,41.10
2018-10-01T02:32:23.163Z,40.90
2018-10-01T02:33:23.159Z,39.60
2018-10-01T02:34:23.169Z,40.50
2018-10-01T02:35:23.162Z,42.50
2018-10-01T02:36:23.120Z,41.80
2018-10-01T02:37:23.106Z,43.70
2018-10-01T02:38:23.093Z,44.90
2018-10-01T02:39:23.083Z,43.90
2018-10-01T02:40:23.099Z,44.10
2018-10-01T02:41:23.060Z,43.10
2018-10-01T02:42:23.053Z,44.10
2018-10-01T02:43:23.039Z,43.80
2018-10-01T02:44:23.033Z,45.10
2018-10-01T02:45:23.036Z,46.60
2018-10-01T02:46:23.004Z,47.60
2018-10-01T02:47:22.995Z,45.70
2018-10-01T02:48:22.985Z,45.90
2018-10-01T02:49:22.970Z,46.30
2018-10-01T02:50:22.993Z,47.80
2018-10-01T02:51:22.964Z,47.00
2018-10-01T02:52:22.933Z,46.60
2018-10-01T02:53:22.927Z,47.90
2018-10-01T02:54:22.913Z,46.30
2018-10-01T02:55:22.901Z,48.50
2018-10-01T02:56:22.920Z,47.00
2018-10-01T02:57:22.879Z,43.70
2018-10-01T02:58:22.864Z,43.00
2018-10-01T02:59:22.861Z,45.70
2018-10-01T03:00:22.859Z,45.20
2018-10-01T03:01:22.857Z,44.40
2018-10-01T03:02:22.824Z,47.50
2018-10-01T03:03:22.809Z,44.80
2018-10-01T03:04:22.801Z,44.60
2018-10-01T03:05:22.787Z,42.10
2018-10-01T03:06:22.823Z,42.60
2018-10-01T03:07:22.764Z,45.10
2018-10-01T03:08:22.757Z,44.20
2018-10-01T03:09:22.750Z,44.20
2018-10-01T03:10:22.732Z,43.10
2018-10-01T03:11:22.722Z,45.20
2018-10-01T03:12:22.867Z,46.40
2018-10-01T03:13:22.705Z,43.70
2018-10-01T03:14:22.686Z,44.10
2018-10-01T03:15:22.685Z,46.50
2018-10-01T03:16:22.667Z,46.60
2018-10-01T03:17:22.695Z,44.90
2018-10-01T03:18:22.641Z,46.50
2018-10-01T03:19:22.627Z,44.20
2018-10-01T03:20:22.624Z,46.10
2018-10-01T03:21:22.721Z,44.30
2018-10-01T03:22:22.640Z,47.80
2018-10-01T03:23:22.589Z,46.40
2018-10-01T03:24:22.576Z,44.30
2018-10-01T03:25:22.575Z,45.70
2018-10-01T03:26:22.555Z,41.90
2018-10-01T03:27:22.571Z,43.90
2018-10-01T03:28:22.561Z,44.70
2018-10-01T03:29:22.528Z,44.80
2018-10-01T03:30:22.507Z,45.30
2018-10-01T03:31:22.496Z,46.70
2018-10-01T03:32:22.488Z,44.50
2018-10-01T03:33:22.499Z,44.60
2018-10-01T03:34:22.460Z,46.00
2018-10-01T03:35:22.454Z,43.50
2018-10-01T03:36:22.444Z,43.20
2018-10-01T03:37:22.439Z,45.40
2018-10-01T03:38:22.440Z,43.60
2018-10-01T03:39:22.418Z,45.60
2018-10-01T03:40:22.396Z,44.80
2018-10-01T03:41:22.379Z,44.40
2018-10-01T03:42:22.368Z,44.90
2018-10-01T03:43:22.393Z,44.70
2018-10-01T03:44:22.347Z,45.10
2018-10-01T03:45:22.342Z,46.90
2018-10-01T03:46:22.328Z,43.50
2018-10-01T03:47:22.317Z,44.50
2018-10-01T03:48:22.338Z,43.00
2018-10-01T03:49:22.329Z,44.80
2018-10-01T03:50:22.279Z,41.30
2018-10-01T03:51:22.269Z,41.90
2018-10-01T03:52:22.262Z,42.70
2018-10-01T03:53:22.246Z,42.50
2018-10-01T03:54:22.259Z,41.90
2018-10-01T03:55:22.227Z,43.80
2018-10-01T03:56:22.212Z,43.90
2018-10-01T03:57:22.203Z,41.60
2018-10-01T03:58:22.229Z,43.20
2018-10-01T03:59:22.214Z,40.80
2018-10-01T04:00:22.168Z,41.30
2018-10-01T04:01:22.156Z,39.10
2018-10-01T04:02:22.145Z,39.30
2018-10-01T04:03:22.143Z,36.50
2018-10-01T04:04:22.159Z,39.40
2018-10-01T04:05:22.116Z,38.90
2018-10-01T04:06:22.104Z,38.90
2018-10-01T04:07:22.089Z,35.80
2018-10-01T04:08:22.082Z,37.00
2018-10-01T04:09:22.067Z,38.90
2018-10-01T04:10:22.072Z,41.80
2018-10-01T04:11:22.039Z,38.60
2018-10-01T04:12:29.125Z,39.60
2018-10-01T04:13:29.080Z,38.50
2018-10-01T04:14:22.019Z,39.70
2018-10-01T04:15:22.026Z,36.60
2018-10-01T04:16:21.992Z,38.30
2018-10-01T04:17:21.983Z,34.40
2018-10-01T04:18:21.980Z,37.20
2018-10-01T04:19:21.949Z,38.20
2018-10-01T04:20:21.992Z,37.10
2018-10-01T04:21:21.937Z,41.80
2018-10-01T04:22:21.917Z,39.50
2018-10-01T04:23:21.909Z,38.70
2018-10-01T04:24:28.985Z,41.20
2018-10-01T04:25:29.216Z,40.30
2018-10-01T04:26:21.894Z,39.40
2018-10-01T04:27:28.973Z,37.00
2018-10-01T04:28:22.110Z,36.20
2018-10-01T04:29:21.848Z,36.40
2018-10-01T04:30:21.824Z,35.00
2018-10-01T04:31:21.839Z,40.50
2018-10-01T04:32:21.805Z,40.00
2018-10-01T04:33:21.790Z,40.60
2018-10-01T04:34:21.781Z,42.70
2018-10-01T04:35:21.790Z,37.90
2018-10-01T04:36:21.789Z,34.40
2018-10-01T04:37:21.760Z,38.40
2018-10-01T04:38:21.742Z,35.90
2018-10-01T04:39:28.818Z,35.70
2018-10-01T04:40:21.718Z,35.70
2018-10-01T04:41:28.871Z,34.20
2018-10-01T04:42:21.693Z,38.60
2018-10-01T04:43:21.690Z,38.80
2018-10-01T04:44:28.749Z,36.10
2018-10-01T04:45:28.730Z,42.60
2018-10-01T04:46:21.672Z,41.20
2018-10-01T04:47:21.659Z,41.40
2018-10-01T04:48:21.624Z,39.90
2018-10-01T04:49:21.622Z,56.60
2018-10-01T04:50:21.619Z,89.90
2018-10-01T04:51:21.590Z,59.20
2018-10-01T04:52:21.607Z,46.30
2018-10-01T04:53:21.575Z,40.90
2018-10-01T04:54:21.557Z,42.00
2018-10-01T04:55:21.562Z,45.00
2018-10-01T04:56:21.541Z,60.80
2018-10-01T04:57:21.551Z,51.90
2018-10-01T04:58:21.636Z,43.40
2018-10-01T04:59:21.506Z,38.60
2018-10-01T05:00:21.487Z,42.20
2018-10-01T05:01:21.478Z,39.90
2018-10-01T05:02:21.502Z,40.10
2018-10-01T05:03:21.456Z,42.80
2018-10-01T05:04:21.452Z,38.00
2018-10-01T05:05:21.443Z,40.00
2018-10-01T05:06:21.431Z,39.20
2018-10-01T05:07:21.439Z,38.00
2018-10-01T05:08:21.423Z,40.60
2018-10-01T05:09:21.383Z,39.70
2018-10-01T05:10:21.397Z,42.20
2018-10-01T05:11:21.386Z,40.30
2018-10-01T05:12:21.350Z,39.20
2018-10-01T05:13:21.373Z,38.40
2018-10-01T05:14:21.329Z,35.90
2018-10-01T05:15:21.338Z,38.90
2018-10-01T05:16:21.310Z,44.20
2018-10-01T05:17:21.306Z,37.10
2018-10-01T05:18:21.315Z,43.10
2018-10-01T05:19:21.276Z,43.00
2018-10-01T05:20:21.262Z,42.70
2018-10-01T05:21:21.251Z,42.30
2018-10-01T05:22:21.238Z,41.30
2018-10-01T05:23:21.260Z,37.80
2018-10-01T05:24:21.218Z,40.40
2018-10-01T05:25:21.211Z,38.00
2018-10-01T05:26:21.195Z,39.00
2018-10-01T05:27:21.185Z,35.00
2018-10-01T05:28:21.204Z,35.60
2018-10-01T05:29:21.177Z,39.00
2018-10-01T05:30:21.152Z,37.60
2018-10-01T05:31:21.144Z,38.20
2018-10-01T05:32:21.138Z,35.10
2018-10-01T05:33:21.118Z,39.70
2018-10-01T05:34:21.130Z,37.80
2018-10-01T05:35:21.119Z,36.00
2018-10-01T05:36:21.084Z,35.00
2018-10-01T05:37:21.076Z,36.50
2018-10-01T05:38:21.067Z,35.30
2018-10-01T05:39:21.084Z,35.80
2018-10-01T05:40:21.042Z,36.10
2018-10-01T05:41:21.035Z,35.10
2018-10-01T05:42:21.014Z,36.70
2018-10-01T05:43:21.009Z,36.90
2018-10-01T05:44:21.032Z,39.50
2018-10-01T05:45:20.982Z,38.00
2018-10-01T05:46:21.013Z,36.70
2018-10-01T05:47:21.012Z,36.30
2018-10-01T05:48:20.984Z,36.10
2018-10-01T05:49:20.982Z,37.00
2018-10-01T05:50:21.049Z,36.10
2018-10-01T05:51:20.969Z,38.50
2018-10-01T05:52:21.074Z,38.10
2018-10-01T05:53:20.900Z,38.80
2018-10-01T05:54:20.881Z,39.10
2018-10-01T05:55:20.896Z,36.30
2018-10-01T05:56:20.881Z,34.60
2018-10-01T05:57:20.848Z,35.10
2018-10-01T05:58:20.841Z,37.20
2018-10-01T05:59:20.847Z,36.70
2018-10-01T06:00:20.852Z,38.90
2018-10-01T06:01:20.805Z,36.00
2018-10-01T06:02:20.804Z,36.00
2018-10-01T06:03:20.838Z,39.10
2018-10-01T06:04:20.796Z,36.00
2018-10-01T06:05:20.767Z,36.90
2018-10-01T06:06:20.800Z,37.30
2018-10-01T06:07:20.739Z,34.20
2018-10-01T06:08:20.736Z,33.50
2018-10-01T06:09:20.713Z,31.70
2018-10-01T06:10:20.722Z,34.20
2018-10-01T06:11:20.719Z,34.30
2018-10-01T06:12:20.681Z,32.80
2018-10-01T06:13:20.684Z,33.40
2018-10-01T06:14:20.670Z,35.80
2018-10-01T06:15:20.645Z,36.00
2018-10-01T06:16:20.681Z,32.20
2018-10-01T06:17:20.647Z,39.30
2018-10-01T06:18:20.612Z,33.50
2018-10-01T06:19:20.603Z,34.50
2018-10-01T06:20:20.614Z,32.10
2018-10-01T06:21:20.745Z,32.00
2018-10-01T06:22:20.596Z,30.40
2018-10-01T06:23:20.579Z,32.90
2018-10-01T06:24:20.551Z,28.70
2018-10-01T06:25:20.660Z,32.00
2018-10-01T06:26:20.554Z,31.70
2018-10-01T06:27:20.545Z,34.40
2018-10-01T06:28:20.506Z,34.10
2018-10-01T06:29:20.558Z,33.20
2018-10-01T06:30:20.537Z,34.30
2018-10-01T06:31:20.491Z,35.70
2018-10-01T06:32:20.484Z,33.80
2018-10-01T06:33:20.449Z,32.70
2018-10-01T06:34:20.445Z,36.50
2018-10-01T06:35:20.426Z,35.90
2018-10-01T06:36:20.450Z,39.00
2018-10-01T06:37:20.398Z,37.80
2018-10-01T06:38:20.425Z,53.70
2018-10-01T06:39:20.413Z,48.10
2018-10-01T06:40:20.368Z,42.70
2018-10-01T06:41:20.371Z,48.90
2018-10-01T06:42:20.341Z,41.50
2018-10-01T06:43:20.365Z,41.80
2018-10-01T06:44:20.317Z,40.90
2018-10-01T06:45:20.478Z,43.90
2018-10-01T06:46:20.293Z,40.20
2018-10-01T06:47:20.282Z,44.40
2018-10-01T06:48:20.315Z,45.00
2018-10-01T06:49:20.294Z,66.70
2018-10-01T06:50:27.375Z,51.80
2018-10-01T06:51:27.290Z,52.80
2018-10-01T06:52:20.248Z,39.20
2018-10-01T06:53:20.284Z,36.90
2018-10-01T06:54:20.214Z,34.40
2018-10-01T06:55:20.201Z,36.90
2018-10-01T06:56:20.182Z,36.30
2018-10-01T06:57:20.175Z,38.00
2018-10-01T06:58:20.161Z,35.20
2018-10-01T06:59:20.199Z,35.70
2018-10-01T07:00:20.183Z,35.10
2018-10-01T07:01:20.187Z,33.30
2018-10-01T07:02:20.112Z,32.70
2018-10-01T07:03:20.119Z,32.90
2018-10-01T07:04:20.113Z,32.50
2018-10-01T07:05:20.104Z,32.10
2018-10-01T07:06:20.076Z,34.20
2018-10-01T07:07:20.066Z,36.00
2018-10-01T07:08:20.044Z,34.50
2018-10-01T07:09:20.056Z,34.00
2018-10-01T07:10:20.047Z,34.40
2018-10-01T07:11:20.104Z,32.40
2018-10-01T07:12:20.009Z,31.60
2018-10-01T07:13:20.002Z,31.80
2018-10-01T07:14:20.034Z,30.00
2018-10-01T07:15:19.976Z,30.30
2018-10-01T07:16:19.984Z,32.60
2018-10-01T07:17:20.083Z,31.40
2018-10-01T07:18:19.944Z,33.50
2018-10-01T07:19:19.921Z,32.50
2018-10-01T07:20:19.944Z,30.50
2018-10-01T07:21:19.918Z,33.70
2018-10-01T07:22:19.926Z,38.40
2018-10-01T07:23:20.055Z,34.20
2018-10-01T07:24:19.875Z,31.40
2018-10-01T07:25:19.883Z,30.00
2018-10-01T07:26:19.870Z,30.20
2018-10-01T07:27:19.841Z,30.10
2018-10-01T07:28:19.831Z,30.50
2018-10-01T07:29:19.819Z,28.90
2018-10-01T07:30:19.852Z,29.50
2018-10-01T07:31:19.810Z,26.50
2018-10-01T07:32:19.776Z,26.30
2018-10-01T07:33:19.776Z,28.40
2018-10-01T07:34:19.753Z,26.50
2018-10-01T07:35:19.781Z,26.50
2018-10-01T07:36:19.749Z,28.60
2018-10-01T07:37:19.728Z,28.60
2018-10-01T07:38:19.709Z,27.80
2018-10-01T07:39:19.718Z,22.20
2018-10-01T07:40:19.717Z,22.80
2018-10-01T07:41:19.729Z,23.90
2018-10-01T07:42:19.690Z,22.80
2018-10-01T07:43:19.689Z,24.10
2018-10-01T07:44:19.640Z,25.40
2018-10-01T07:45:19.869Z,24.60
2018-10-01T07:46:19.688Z,24.10
2018-10-01T07:47:19.643Z,25.10
2018-10-01T07:48:19.600Z,25.30
2018-10-01T07:49:19.623Z,26.10
2018-10-01T07:50:19.579Z,25.60
2018-10-01T07:51:19.594Z,26.60
2018-10-01T07:52:19.557Z,25.40
2018-10-01T07:53:26.732Z,24.00
2018-10-01T07:54:26.629Z,23.00
2018-10-01T07:55:26.581Z,26.10
2018-10-01T07:56:26.676Z,25.60
2018-10-01T07:57:19.518Z,22.70
2018-10-01T07:58:26.535Z,24.90
2018-10-01T07:59:19.475Z,21.90
2018-10-01T08:00:19.522Z,23.60
2018-10-01T08:01:19.462Z,23.00
2018-10-01T08:02:19.541Z,23.50
2018-10-01T08:03:19.427Z,24.70
2018-10-01T08:04:19.413Z,25.40
2018-10-01T08:05:19.439Z,26.00
2018-10-01T08:06:19.413Z,26.10
2018-10-01T08:07:19.381Z,24.90
2018-10-01T08:08:19.448Z,25.00
2018-10-01T08:09:19.468Z,25.80
2018-10-01T08:10:19.424Z,25.80
2018-10-01T08:11:19.340Z,24.60
2018-10-01T08:12:19.354Z,29.70
2018-10-01T08:13:19.317Z,25.40
2018-10-01T08:14:19.319Z,24.40
2018-10-01T08:15:19.346Z,23.80
2018-10-01T08:16:19.281Z,24.90
2018-10-01T08:17:19.272Z,25.30
2018-10-01T08:18:19.287Z,25.40
2018-10-01T08:19:19.247Z,24.00
2018-10-01T08:20:19.295Z,25.60
2018-10-01T08:21:19.226Z,24.70
2018-10-01T08:22:19.248Z,23.50
2018-10-01T08:23:19.206Z,24.70
2018-10-01T08:24:19.192Z,26.90
2018-10-01T08:25:19.181Z,24.80
2018-10-01T08:26:19.306Z,24.00
2018-10-01T08:27:19.191Z,22.00
2018-10-01T08:28:19.147Z,24.10
2018-10-01T08:29:19.176Z,23.80
2018-10-01T08:30:19.125Z,22.80
2018-10-01T08:31:19.204Z,28.00
2018-10-01T08:32:19.167Z,40.90
2018-10-01T08:33:19.097Z,22.60
2018-10-01T08:34:19.125Z,27.90
2018-10-01T08:35:19.091Z,27.10
2018-10-01T08:36:19.060Z,28.20
2018-10-01T08:37:19.044Z,23.60
2018-10-01T08:38:19.242Z,22.90
2018-10-01T08:39:19.026Z,22.50
2018-10-01T08:40:19.013Z,22.30
2018-10-01T08:41:19.051Z,25.60
2018-10-01T08:42:19.024Z,22.10
2018-10-01T08:43:26.076Z,23.80
2018-10-01T08:44:18.974Z,31.50
2018-10-01T08:45:18.961Z,24.30
2018-10-01T08:46:18.945Z,25.60
2018-10-01T08:47:19.087Z,25.10
2018-10-01T08:48:18.941Z,27.00
2018-10-01T08:49:18.909Z,22.90
2018-10-01T08:50:18.917Z,21.60
2018-10-01T08:51:18.891Z,24.20
2018-10-01T08:52:18.948Z,21.10
2018-10-01T08:53:19.756Z,24.20
2018-10-01T08:54:18.863Z,32.80
2018-10-01T08:55:18.847Z,22.70
2018-10-01T08:56:18.841Z,37.90
2018-10-01T08:57:18.827Z,25.00
2018-10-01T08:58:18.854Z,25.20
2018-10-01T08:59:18.808Z,29.60
2018-10-01T09:00:18.803Z,22.50
2018-10-01T09:01:18.811Z,22.60
2018-10-01T09:02:25.897Z,24.70
2018-10-01T09:03:18.780Z,25.20
2018-10-01T09:04:18.741Z,24.30
2018-10-01T09:05:18.772Z,25.60
2018-10-01T09:06:18.740Z,24.30
2018-10-01T09:07:18.717Z,21.90
2018-10-01T09:08:18.763Z,22.30
2018-10-01T09:09:18.687Z,21.10
2018-10-01T09:10:18.674Z,22.90
2018-10-01T09:11:18.721Z,25.50
2018-10-01T09:12:18.728Z,27.10
2018-10-01T09:13:18.639Z,24.90
2018-10-01T09:14:18.709Z,24.60
2018-10-01T09:15:18.616Z,23.60
2018-10-01T09:16:18.606Z,22.60
2018-10-01T09:17:18.599Z,21.80
2018-10-01T09:18:18.617Z,20.60
2018-10-01T09:19:18.571Z,21.50
2018-10-01T09:20:18.624Z,20.60
2018-10-01T09:21:18.610Z,21.40
2018-10-01T09:22:18.541Z,19.70
2018-10-01T09:23:18.556Z,20.00
2018-10-01T09:24:18.534Z,20.80
2018-10-01T09:25:18.512Z,19.50
2018-10-01T09:26:18.580Z,19.20
2018-10-01T09:27:18.484Z,19.30
2018-10-01T09:28:18.507Z,18.50
2018-10-01T09:29:18.486Z,18.90
2018-10-01T09:30:18.455Z,20.00
2018-10-01T09:31:18.549Z,19.70
2018-10-01T09:32:18.436Z,20.50
2018-10-01T09:33:18.445Z,19.20
2018-10-01T09:34:18.402Z,19.30
2018-10-01T09:35:18.400Z,18.30
2018-10-01T09:36:18.398Z,18.30
2018-10-01T09:37:18.371Z,19.30
2018-10-01T09:38:19.292Z,19.00
2018-10-01T09:39:18.360Z,19.20
2018-10-01T09:40:18.338Z,18.90
2018-10-01T09:41:18.329Z,19.00
2018-10-01T09:42:18.342Z,18.70
2018-10-01T09:43:18.348Z,18.20
2018-10-01T09:44:18.356Z,18.40
2018-10-01T09:45:18.306Z,17.90
2018-10-01T09:46:18.314Z,17.90
2018-10-01T09:47:18.261Z,17.20
2018-10-01T09:48:18.257Z,17.10
2018-10-01T09:49:18.254Z,17.50
2018-10-01T09:50:18.258Z,16.60
2018-10-01T09:51:18.216Z,16.10
2018-10-01T09:52:18.256Z,16.80
2018-10-01T09:53:18.198Z,17.20
2018-10-01T09:54:18.231Z,16.80
2018-10-01T09:55:18.171Z,16.00
2018-10-01T09:56:18.237Z,16.50
2018-10-01T09:57:18.149Z,15.70
2018-10-01T09:58:18.188Z,14.70
2018-10-01T09:59:18.130Z,15.70
2018-10-01T10:00:18.163Z,15.90
2018-10-01T10:01:18.176Z,15.30
2018-10-01T10:02:18.151Z,15.00
2018-10-01T10:03:18.080Z,15.20
2018-10-01T10:04:18.090Z,15.70
2018-10-01T10:05:18.084Z,15.70
2018-10-01T10:06:18.046Z,15.20
2018-10-01T10:07:18.040Z,14.80
2018-10-01T10:08:18.086Z,14.30
2018-10-01T10:09:18.013Z,16.30
2018-10-01T10:10:18.095Z,15.00
2018-10-01T10:11:18.010Z,14.90
2018-10-01T10:12:17.981Z,15.20
2018-10-01T10:13:17.989Z,14.60
2018-10-01T10:14:18.057Z,15.00
2018-10-01T10:15:25.098Z,15.00
2018-10-01T10:16:25.658Z,15.10
2018-10-01T10:17:25.049Z,15.40
2018-10-01T10:18:24.967Z,15.50
2018-10-01T10:19:17.906Z,15.80
2018-10-01T10:20:17.894Z,15.00
2018-10-01T10:21:17.956Z,15.00
2018-10-01T10:22:17.912Z,15.20
2018-10-01T10:23:17.879Z,15.40
2018-10-01T10:24:25.007Z,15.80
2018-10-01T10:25:17.832Z,15.50
2018-10-01T10:26:17.866Z,14.80
2018-10-01T10:27:17.806Z,16.40
2018-10-01T10:28:17.857Z,15.50
2018-10-01T10:29:17.811Z,15.70
2018-10-01T10:30:17.777Z,15.60
2018-10-01T10:31:17.763Z,15.50
2018-10-01T10:32:17.805Z,17.00
2018-10-01T10:33:17.736Z,25.40
2018-10-01T10:34:17.768Z,15.60
2018-10-01T10:35:17.751Z,15.60
2018-10-01T10:36:17.702Z,16.10
2018-10-01T10:37:17.693Z,15.40
2018-10-01T10:38:17.689Z,18.30
2018-10-01T10:39:17.693Z,16.70
2018-10-01T10:40:17.661Z,15.50
2018-10-01T10:41:17.653Z,15.80
2018-10-01T10:42:17.674Z,15.50
2018-10-01T10:43:17.627Z,15.50
2018-10-01T10:44:17.757Z,15.30
2018-10-01T10:45:17.608Z,15.70
2018-10-01T10:46:17.643Z,14.90
2018-10-01T10:47:17.620Z,14.90
2018-10-01T10:48:17.587Z,14.70
2018-10-01T10:49:18.222Z,16.20
2018-10-01T10:50:17.744Z,15.40
2018-10-01T10:51:18.455Z,15.00
2018-10-01T10:52:17.649Z,16.20
2018-10-01T10:53:17.765Z,16.10
2018-10-01T10:54:17.503Z,15.70
2018-10-01T10:55:17.860Z,14.90
2018-10-01T10:56:17.810Z,15.60
2018-10-01T10:57:17.471Z,14.70
2018-10-01T10:58:17.455Z,15.40
2018-10-01T10:59:17.546Z,15.60
2018-10-01T11:00:17.641Z,16.10
2018-10-01T11:01:17.442Z,16.40
2018-10-01T11:02:17.506Z,15.90
2018-10-01T11:03:17.438Z,16.40
2018-10-01T11:04:17.455Z,15.60
2018-10-01T11:05:17.825Z,15.10
2018-10-01T11:06:17.366Z,15.10
2018-10-01T11:07:17.568Z,15.80
2018-10-01T11:08:17.486Z,16.50
2018-10-01T11:09:17.395Z,16.70
2018-10-01T11:10:17.509Z,16.00
2018-10-01T11:11:17.368Z,16.00
2018-10-01T11:12:17.299Z,15.90
2018-10-01T11:13:17.345Z,16.00
2018-10-01T11:14:17.501Z,15.80
2018-10-01T11:15:18.105Z,15.60
2018-10-01T11:16:17.347Z,16.30
2018-10-01T11:17:17.506Z,16.20
2018-10-01T11:18:17.569Z,15.60
2018-10-01T11:19:24.322Z,15.60
2018-10-01T11:20:24.363Z,16.40
2018-10-01T11:21:17.224Z,16.20
2018-10-01T11:22:17.187Z,16.30
2018-10-01T11:23:17.209Z,15.90
2018-10-01T11:24:17.159Z,15.90
2018-10-01T11:25:17.175Z,15.70
2018-10-01T11:26:17.144Z,15.90
2018-10-01T11:27:17.288Z,15.60
2018-10-01T11:28:17.167Z,16.00
2018-10-01T11:29:17.110Z,16.50
2018-10-01T11:30:17.131Z,16.20
2018-10-01T11:31:17.086Z,16.70
2018-10-01T11:32:17.344Z,16.10
2018-10-01T11:33:17.271Z,15.90
2018-10-01T11:34:17.190Z,16.00
2018-10-01T11:35:17.291Z,16.10
2018-10-01T11:36:17.075Z,16.20
2018-10-01T11:37:17.150Z,15.30
2018-10-01T11:38:17.078Z,16.20
2018-10-01T11:39:17.011Z,14.90
2018-10-01T11:40:17.012Z,15.10
2018-10-01T11:41:17.077Z,14.80
2018-10-01T11:42:17.171Z,14.40
2018-10-01T11:43:17.266Z,14.80
2018-10-01T11:44:17.060Z,14.80
2018-10-01T11:45:17.519Z,14.90
2018-10-01T11:46:17.081Z,15.20
2018-10-01T11:47:16.911Z,15.80
2018-10-01T11:48:17.001Z,15.10
2018-10-01T11:49:16.884Z,14.70
2018-10-01T11:50:16.875Z,14.90
2018-10-01T11:51:17.208Z,15.10
2018-10-01T11:52:16.855Z,15.50
2018-10-01T11:53:16.833Z,14.20
2018-10-01T11:54:16.879Z,15.10
2018-10-01T11:55:16.816Z,14.70
2018-10-01T11:56:16.802Z,14.50
2018-10-01T11:57:16.828Z,14.20
2018-10-01T11:58:16.866Z,14.00
2018-10-01T11:59:16.793Z,13.60
2018-10-01T12:00:16.761Z,13.90
2018-10-01T12:01:16.742Z,13.60
2018-10-01T12:02:16.732Z,14.00
2018-10-01T12:03:16.818Z,13.70
2018-10-01T12:04:16.940Z,14.40
2018-10-01T12:05:16.698Z,14.00
2018-10-01T12:06:16.698Z,13.90
2018-10-01T12:07:16.688Z,14.40
2018-10-01T12:08:16.694Z,13.70
2018-10-01T12:09:16.710Z,14.30
2018-10-01T12:10:16.711Z,13.70
2018-10-01T12:11:16.637Z,14.40
2018-10-01T12:12:16.630Z,14.10
2018-10-01T12:13:16.620Z,14.30
2018-10-01T12:14:16.601Z,13.80
2018-10-01T12:15:16.846Z,13.80
2018-10-01T12:16:16.743Z,14.30
2018-10-01T12:17:16.565Z,14.90
2018-10-01T12:18:16.624Z,14.30
2018-10-01T12:19:16.547Z,14.50
2018-10-01T12:20:16.598Z,14.80
2018-10-01T12:21:16.653Z,14.20
2018-10-01T12:22:16.545Z,13.70
2018-10-01T12:23:16.497Z,16.30
2018-10-01T12:24:16.494Z,15.30
2018-10-01T12:25:16.533Z,16.70
2018-10-01T12:26:16.466Z,15.40
2018-10-01T12:27:16.558Z,14.60
2018-10-01T12:28:16.494Z,13.90
2018-10-01T12:29:16.498Z,15.80
2018-10-01T12:30:16.432Z,17.70
2018-10-01T12:31:16.466Z,15.40
2018-10-01T12:32:16.410Z,16.70
2018-10-01T12:33:16.471Z,15.10
2018-10-01T12:34:16.376Z,16.60
2018-10-01T12:35:16.366Z,17.10
2018-10-01T12:36:16.377Z,17.40
2018-10-01T12:37:16.365Z,17.30
2018-10-01T12:38:16.336Z,17.10
2018-10-01T12:39:16.401Z,16.90
2018-10-01T12:40:16.314Z,19.00
2018-10-01T12:41:16.334Z,19.00
2018-10-01T12:42:16.328Z,18.30
2018-10-01T12:43:16.280Z,17.80
2018-10-01T12:44:16.269Z,18.80
2018-10-01T12:45:16.297Z,18.70
2018-10-01T12:46:16.243Z,18.90
2018-10-01T12:47:16.265Z,19.20
2018-10-01T12:48:16.221Z,20.00
2018-10-01T12:49:16.213Z,20.00
2018-10-01T12:50:16.214Z,20.60
2018-10-01T12:51:16.301Z,21.10
2018-10-01T12:52:16.269Z,22.40